Yale, Ohio
Current Conditions -  °F | °C
As of 5:00 PM on Friday 28 Nov 2014 (Local Time) from KPOV Reporting Station
Overcast Overcast  
Wind Chill: 26°   Ceiling: 2900
Heat Index: 26°   Visibility: 10mi
Dew Point: 15°   Wind: 0mph
Humidity: 65%   Direction: NA
Pressure: 30.2"   Gusts: NA
Location:  41.0376°N, 81.0533°W
Report Text: KPOV 282200Z AUTO 00000KT 10SM OVC029 M03/M09 A3020 RMK AO2 T10351092
Loading
Personal Weather Stations






























Interactive Weather Map New forecast layout! Learn more

10-Day Weather Forecast

Advertisements
Track Severe Weather on mobile